sensor_id;sensor_type;location;lat;lon;timestamp;P1;durP1;ratioP1;P2;durP2;ratioP2
56343;SDS011;42245;42.058;24.700;2022-11-15T05:24:50;36.07;;;19.27;;
56343;SDS011;42245;42.058;24.700;2022-11-15T05:27:16;35.03;;;20.00;;
56343;SDS011;42245;42.058;24.700;2022-11-15T05:29:41;36.97;;;19.97;;
56343;SDS011;42245;42.058;24.700;2022-11-15T05:32:07;41.60;;;20.97;;
56343;SDS011;42245;42.058;24.700;2022-11-15T05:34:33;37.60;;;20.17;;
56343;SDS011;42245;42.058;24.700;2022-11-15T05:37:00;35.80;;;19.27;;
56343;SDS011;42245;42.058;24.700;2022-11-15T05:39:25;32.23;;;18.93;;
56343;SDS011;42245;42.058;24.700;2022-11-15T05:41:52;32.67;;;19.23;;
56343;SDS011;42245;42.058;24.700;2022-11-15T05:44:41;33.40;;;19.03;;
56343;SDS011;42245;42.058;24.700;2022-11-15T05:47:10;31.43;;;19.00;;
56343;SDS011;42245;42.058;24.700;2022-11-15T05:49:39;34.33;;;19.63;;
56343;SDS011;42245;42.058;24.700;2022-11-15T05:52:06;30.43;;;18.07;;
56343;SDS011;42245;42.058;24.700;2022-11-15T05:54:32;33.43;;;18.30;;
56343;SDS011;42245;42.058;24.700;2022-11-15T05:56:58;31.93;;;18.27;;
56343;SDS011;42245;42.058;24.700;2022-11-15T05:59:24;29.03;;;17.73;;
56343;SDS011;42245;42.058;24.700;2022-11-15T06:01:50;31.43;;;16.87;;
56343;SDS011;42245;42.058;24.700;2022-11-15T06:04:16;33.57;;;17.73;;
56343;SDS011;42245;42.058;24.700;2022-11-15T06:06:41;30.67;;;17.20;;
56343;SDS011;42245;42.058;24.700;2022-11-15T06:09:07;32.67;;;17.23;;
56343;SDS011;42245;42.058;24.700;2022-11-15T06:11:32;31.20;;;17.67;;
56343;SDS011;42245;42.058;24.700;2022-11-15T06:13:57;31.60;;;17.00;;
56343;SDS011;42245;42.058;24.700;2022-11-15T06:16:23;31.70;;;17.20;;
56343;SDS011;42245;42.058;24.700;2022-11-15T06:18:48;26.77;;;15.80;;
56343;SDS011;42245;42.058;24.700;2022-11-15T06:21:14;25.10;;;15.10;;
56343;SDS011;42245;42.058;24.700;2022-11-15T06:23:39;27.50;;;16.27;;
56343;SDS011;42245;42.058;24.700;2022-11-15T06:26:05;27.53;;;15.43;;
56343;SDS011;42245;42.058;24.700;2022-11-15T06:28:31;25.98;;;16.33;;
56343;SDS011;42245;42.058;24.700;2022-11-15T06:31:07;27.20;;;15.83;;
56343;SDS011;42245;42.058;24.700;2022-11-15T06:33:33;26.67;;;16.23;;
56343;SDS011;42245;42.058;24.700;2022-11-15T06:36:02;25.83;;;15.67;;
56343;SDS011;42245;42.058;24.700;2022-11-15T06:38:29;29.80;;;18.37;;
56343;SDS011;42245;42.058;24.700;2022-11-15T06:40:54;30.37;;;17.73;;
56343;SDS011;42245;42.058;24.700;2022-11-15T06:43:20;133.75;;;66.47;;
56343;SDS011;42245;42.058;24.700;2022-11-15T06:45:46;41.77;;;23.93;;
56343;SDS011;42245;42.058;24.700;2022-11-15T06:48:11;38.60;;;22.17;;
56343;SDS011;42245;42.058;24.700;2022-11-15T06:50:36;57.22;;;34.50;;
56343;SDS011;42245;42.058;24.700;2022-11-15T06:53:05;44.72;;;24.02;;
56343;SDS011;42245;42.058;24.700;2022-11-15T06:55:30;31.43;;;19.73;;
56343;SDS011;42245;42.058;24.700;2022-11-15T06:57:56;35.92;;;21.85;;
56343;SDS011;42245;42.058;24.700;2022-11-15T07:00:22;28.27;;;17.23;;
56343;SDS011;42245;42.058;24.700;2022-11-15T07:02:47;27.77;;;17.77;;
56343;SDS011;42245;42.058;24.700;2022-11-15T07:05:13;29.80;;;18.67;;
56343;SDS011;42245;42.058;24.700;2022-11-15T07:07:39;32.45;;;20.27;;
56343;SDS011;42245;42.058;24.700;2022-11-15T07:10:05;30.70;;;18.80;;
56343;SDS011;42245;42.058;24.700;2022-11-15T07:12:31;26.02;;;17.75;;
56343;SDS011;42245;42.058;24.700;2022-11-15T07:14:56;27.52;;;17.95;;
56343;SDS011;42245;42.058;24.700;2022-11-15T07:17:22;28.38;;;17.88;;
56343;SDS011;42245;42.058;24.700;2022-11-15T07:19:47;26.15;;;16.33;;
56343;SDS011;42245;42.058;24.700;2022-11-15T07:22:13;31.45;;;20.20;;
56343;SDS011;42245;42.058;24.700;2022-11-15T07:24:38;34.20;;;21.20;;
56343;SDS011;42245;42.058;24.700;2022-11-15T07:27:04;46.63;;;26.27;;
56343;SDS011;42245;42.058;24.700;2022-11-15T07:29:29;52.10;;;31.13;;
56343;SDS011;42245;42.058;24.700;2022-11-15T07:31:54;61.75;;;32.92;;
56343;SDS011;42245;42.058;24.700;2022-11-15T07:34:20;50.70;;;30.50;;
56343;SDS011;42245;42.058;24.700;2022-11-15T07:36:45;51.80;;;28.80;;
56343;SDS011;42245;42.058;24.700;2022-11-15T07:39:11;55.35;;;29.17;;
56343;SDS011;42245;42.058;24.700;2022-11-15T07:41:37;59.63;;;31.90;;
56343;SDS011;42245;42.058;24.700;2022-11-15T07:44:03;64.10;;;34.83;;
56343;SDS011;42245;42.058;24.700;2022-11-15T07:46:29;56.83;;;31.20;;
56343;SDS011;42245;42.058;24.700;2022-11-15T07:48:55;54.05;;;31.48;;
56343;SDS011;42245;42.058;24.700;2022-11-15T07:51:20;62.67;;;31.63;;
56343;SDS011;42245;42.058;24.700;2022-11-15T07:53:46;61.28;;;34.33;;
56343;SDS011;42245;42.058;24.700;2022-11-15T07:56:11;63.45;;;37.47;;
56343;SDS011;42245;42.058;24.700;2022-11-15T07:58:37;63.45;;;36.03;;
56343;SDS011;42245;42.058;24.700;2022-11-15T08:01:03;63.97;;;38.60;;
56343;SDS011;42245;42.058;24.700;2022-11-15T08:03:30;70.35;;;44.47;;
56343;SDS011;42245;42.058;24.700;2022-11-15T08:05:55;64.18;;;39.65;;
56343;SDS011;42245;42.058;24.700;2022-11-15T08:08:20;45.20;;;27.85;;
56343;SDS011;42245;42.058;24.700;2022-11-15T08:10:46;52.63;;;32.67;;
56343;SDS011;42245;42.058;24.700;2022-11-15T08:13:12;48.55;;;28.20;;
56343;SDS011;42245;42.058;24.700;2022-11-15T08:15:38;49.70;;;27.67;;
56343;SDS011;42245;42.058;24.700;2022-11-15T08:18:05;54.88;;;28.13;;
56343;SDS011;42245;42.058;24.700;2022-11-15T08:20:31;37.10;;;22.95;;
56343;SDS011;42245;42.058;24.700;2022-11-15T08:22:58;35.60;;;22.10;;
56343;SDS011;42245;42.058;24.700;2022-11-15T08:25:25;33.67;;;22.30;;
56343;SDS011;42245;42.058;24.700;2022-11-15T08:27:55;33.80;;;23.90;;
56343;SDS011;42245;42.058;24.700;2022-11-15T08:30:21;35.95;;;23.50;;
56343;SDS011;42245;42.058;24.700;2022-11-15T08:32:47;39.67;;;27.60;;
56343;SDS011;42245;42.058;24.700;2022-11-15T08:35:13;33.33;;;20.02;;
56343;SDS011;42245;42.058;24.700;2022-11-15T08:37:39;38.45;;;25.52;;
56343;SDS011;42245;42.058;24.700;2022-11-15T08:40:05;37.20;;;25.05;;
56343;SDS011;42245;42.058;24.700;2022-11-15T08:42:31;39.45;;;25.58;;
56343;SDS011;42245;42.058;24.700;2022-11-15T08:44:56;45.30;;;28.77;;
56343;SDS011;42245;42.058;24.700;2022-11-15T08:47:21;40.88;;;27.98;;
56343;SDS011;42245;42.058;24.700;2022-11-15T08:49:47;41.78;;;26.98;;
56343;SDS011;42245;42.058;24.700;2022-11-15T08:52:13;38.58;;;26.02;;
56343;SDS011;42245;42.058;24.700;2022-11-15T08:54:39;38.65;;;27.67;;
56343;SDS011;42245;42.058;24.700;2022-11-15T08:57:04;36.53;;;23.38;;
56343;SDS011;42245;42.058;24.700;2022-11-15T08:59:30;39.20;;;30.10;;
56343;SDS011;42245;42.058;24.700;2022-11-15T09:01:55;37.42;;;26.45;;
56343;SDS011;42245;42.058;24.700;2022-11-15T09:04:21;36.38;;;23.67;;
56343;SDS011;42245;42.058;24.700;2022-11-15T09:06:46;41.67;;;25.73;;
56343;SDS011;42245;42.058;24.700;2022-11-15T09:09:12;36.80;;;25.00;;
56343;SDS011;42245;42.058;24.700;2022-11-15T09:11:37;36.13;;;25.63;;
56343;SDS011;42245;42.058;24.700;2022-11-15T09:14:03;37.28;;;24.98;;
56343;SDS011;42245;42.058;24.700;2022-11-15T09:16:30;43.38;;;29.02;;
56343;SDS011;42245;42.058;24.700;2022-11-15T09:18:55;37.75;;;25.42;;
56343;SDS011;42245;42.058;24.700;2022-11-15T09:21:21;40.10;;;25.70;;
56343;SDS011;42245;42.058;24.700;2022-11-15T09:23:49;38.58;;;25.45;;
56343;SDS011;42245;42.058;24.700;2022-11-15T09:26:16;44.10;;;26.10;;
56343;SDS011;42245;42.058;24.700;2022-11-15T09:28:41;39.08;;;26.25;;
56343;SDS011;42245;42.058;24.700;2022-11-15T09:31:07;37.90;;;25.75;;
56343;SDS011;42245;42.058;24.700;2022-11-15T09:33:33;38.63;;;26.20;;
56343;SDS011;42245;42.058;24.700;2022-11-15T09:36:02;43.28;;;26.00;;
56343;SDS011;42245;42.058;24.700;2022-11-15T09:38:30;36.47;;;23.95;;
56343;SDS011;42245;42.058;24.700;2022-11-15T09:49:01;43.08;;;25.92;;
56343;SDS011;42245;42.058;24.700;2022-11-15T09:54:04;43.90;;;27.02;;
56343;SDS011;42245;42.058;24.700;2022-11-15T09:56:31;38.60;;;26.48;;
56343;SDS011;42245;42.058;24.700;2022-11-15T10:03:58;40.22;;;28.55;;
56343;SDS011;42245;42.058;24.700;2022-11-15T10:06:25;45.63;;;26.35;;
56343;SDS011;42245;42.058;24.700;2022-11-15T10:09:10;37.95;;;26.27;;
56343;SDS011;42245;42.058;24.700;2022-11-15T10:11:38;39.95;;;26.23;;
56343;SDS011;42245;42.058;24.700;2022-11-15T10:14:15;41.65;;;26.98;;
56343;SDS011;42245;42.058;24.700;2022-11-15T10:19:33;34.45;;;23.20;;
56343;SDS011;42245;42.058;24.700;2022-11-15T10:22:16;39.88;;;26.50;;
56343;SDS011;42245;42.058;24.700;2022-11-15T10:24:43;40.13;;;25.13;;
56343;SDS011;42245;42.058;24.700;2022-11-15T10:27:14;36.50;;;23.38;;
56343;SDS011;42245;42.058;24.700;2022-11-15T10:29:46;37.42;;;23.25;;
56343;SDS011;42245;42.058;24.700;2022-11-15T10:32:13;44.90;;;25.55;;
56343;SDS011;42245;42.058;24.700;2022-11-15T10:34:40;44.40;;;29.13;;
56343;SDS011;42245;42.058;24.700;2022-11-15T10:37:06;45.03;;;31.42;;
56343;SDS011;42245;42.058;24.700;2022-11-15T10:39:31;52.42;;;34.67;;
56343;SDS011;42245;42.058;24.700;2022-11-15T10:42:14;54.10;;;37.78;;
56343;SDS011;42245;42.058;24.700;2022-11-15T10:44:48;41.20;;;26.30;;
56343;SDS011;42245;42.058;24.700;2022-11-15T10:50:25;39.35;;;26.85;;
56343;SDS011;42245;42.058;24.700;2022-11-15T10:53:02;37.55;;;26.13;;
56343;SDS011;42245;42.058;24.700;2022-11-15T10:55:31;37.47;;;26.23;;
56343;SDS011;42245;42.058;24.700;2022-11-15T10:58:03;40.95;;;26.85;;
56343;SDS011;42245;42.058;24.700;2022-11-15T11:00:32;39.25;;;25.67;;
56343;SDS011;42245;42.058;24.700;2022-11-15T11:03:04;37.38;;;23.73;;
56343;SDS011;42245;42.058;24.700;2022-11-15T11:10:39;33.40;;;22.73;;
56343;SDS011;42245;42.058;24.700;2022-11-15T11:15:57;36.60;;;23.20;;
56343;SDS011;42245;42.058;24.700;2022-11-15T11:18:36;35.83;;;23.67;;
56343;SDS011;42245;42.058;24.700;2022-11-15T11:24:21;36.67;;;23.63;;
56343;SDS011;42245;42.058;24.700;2022-11-15T11:40:54;38.85;;;25.67;;
56343;SDS011;42245;42.058;24.700;2022-11-15T11:51:54;36.65;;;24.15;;
56343;SDS011;42245;42.058;24.700;2022-11-15T11:54:28;37.75;;;24.90;;
56343;SDS011;42245;42.058;24.700;2022-11-15T11:56:58;40.30;;;26.38;;
56343;SDS011;42245;42.058;24.700;2022-11-15T11:59:31;39.78;;;27.27;;
56343;SDS011;42245;42.058;24.700;2022-11-15T12:01:59;42.17;;;26.70;;
56343;SDS011;42245;42.058;24.700;2022-11-15T12:04:33;42.28;;;27.73;;
56343;SDS011;42245;42.058;24.700;2022-11-15T12:07:10;38.90;;;26.95;;
56343;SDS011;42245;42.058;24.700;2022-11-15T12:09:58;44.22;;;28.55;;
56343;SDS011;42245;42.058;24.700;2022-11-15T12:15:03;40.05;;;26.00;;
56343;SDS011;42245;42.058;24.700;2022-11-15T12:17:34;36.50;;;24.05;;
56343;SDS011;42245;42.058;24.700;2022-11-15T12:20:02;40.38;;;25.15;;
56343;SDS011;42245;42.058;24.700;2022-11-15T12:25:20;38.63;;;27.10;;
56343;SDS011;42245;42.058;24.700;2022-11-15T12:27:59;37.65;;;26.02;;
56343;SDS011;42245;42.058;24.700;2022-11-15T12:30:52;40.47;;;25.83;;
56343;SDS011;42245;42.058;24.700;2022-11-15T12:36:10;42.03;;;25.52;;
56343;SDS011;42245;42.058;24.700;2022-11-15T12:41:24;36.83;;;25.45;;
56343;SDS011;42245;42.058;24.700;2022-11-15T12:43:51;35.58;;;24.05;;
56343;SDS011;42245;42.058;24.700;2022-11-15T12:46:58;37.88;;;25.60;;
56343;SDS011;42245;42.058;24.700;2022-11-15T13:17:39;47.95;;;31.83;;
56343;SDS011;42245;42.058;24.700;2022-11-15T13:22:40;55.13;;;30.40;;
56343;SDS011;42245;42.058;24.700;2022-11-15T13:27:59;50.83;;;31.55;;
56343;SDS011;42245;42.058;24.700;2022-11-15T13:30:26;61.63;;;40.97;;
56343;SDS011;42245;42.058;24.700;2022-11-15T13:32:53;49.92;;;33.85;;
56343;SDS011;42245;42.058;24.700;2022-11-15T13:35:20;50.53;;;31.00;;
56343;SDS011;42245;42.058;24.700;2022-11-15T13:37:46;50.38;;;31.73;;
56343;SDS011;42245;42.058;24.700;2022-11-15T13:40:28;50.28;;;32.45;;
56343;SDS011;42245;42.058;24.700;2022-11-15T13:42:58;46.25;;;30.42;;
56343;SDS011;42245;42.058;24.700;2022-11-15T13:45:24;49.15;;;32.47;;
56343;SDS011;42245;42.058;24.700;2022-11-15T13:47:56;47.63;;;32.70;;
56343;SDS011;42245;42.058;24.700;2022-11-15T13:50:27;47.45;;;31.38;;
56343;SDS011;42245;42.058;24.700;2022-11-15T13:52:56;50.08;;;31.60;;
56343;SDS011;42245;42.058;24.700;2022-11-15T13:55:24;47.25;;;32.70;;
56343;SDS011;42245;42.058;24.700;2022-11-15T13:57:53;48.85;;;31.75;;
56343;SDS011;42245;42.058;24.700;2022-11-15T14:00:37;47.63;;;31.63;;
56343;SDS011;42245;42.058;24.700;2022-11-15T14:05:39;50.05;;;31.70;;
56343;SDS011;42245;42.058;24.700;2022-11-15T14:11:04;54.58;;;33.80;;
56343;SDS011;42245;42.058;24.700;2022-11-15T14:13:35;50.92;;;32.88;;
56343;SDS011;42245;42.058;24.700;2022-11-15T14:16:14;48.83;;;32.70;;
56343;SDS011;42245;42.058;24.700;2022-11-15T14:18:50;52.13;;;32.78;;
56343;SDS011;42245;42.058;24.700;2022-11-15T14:21:17;51.88;;;32.35;;
56343;SDS011;42245;42.058;24.700;2022-11-15T14:23:43;47.22;;;30.83;;
56343;SDS011;42245;42.058;24.700;2022-11-15T14:26:28;49.78;;;31.35;;
56343;SDS011;42245;42.058;24.700;2022-11-15T14:28:56;48.25;;;31.38;;
56343;SDS011;42245;42.058;24.700;2022-11-15T14:31:21;65.80;;;41.10;;
56343;SDS011;42245;42.058;24.700;2022-11-15T14:33:47;67.80;;;37.28;;
56343;SDS011;42245;42.058;24.700;2022-11-15T14:36:50;57.15;;;34.60;;
56343;SDS011;42245;42.058;24.700;2022-11-15T14:39:16;68.75;;;35.90;;
56343;SDS011;42245;42.058;24.700;2022-11-15T14:41:41;55.90;;;31.83;;
56343;SDS011;42245;42.058;24.700;2022-11-15T14:44:09;47.83;;;30.17;;
56343;SDS011;42245;42.058;24.700;2022-11-15T14:46:35;41.60;;;28.17;;
56343;SDS011;42245;42.058;24.700;2022-11-15T14:49:00;46.75;;;30.70;;
56343;SDS011;42245;42.058;24.700;2022-11-15T14:51:26;95.63;;;52.97;;
56343;SDS011;42245;42.058;24.700;2022-11-15T14:53:51;49.03;;;30.00;;
56343;SDS011;42245;42.058;24.700;2022-11-15T14:56:17;50.75;;;31.67;;
56343;SDS011;42245;42.058;24.700;2022-11-15T14:58:42;47.58;;;28.55;;
56343;SDS011;42245;42.058;24.700;2022-11-15T15:01:19;129.53;;;85.17;;
56343;SDS011;42245;42.058;24.700;2022-11-15T15:03:48;134.93;;;74.80;;
56343;SDS011;42245;42.058;24.700;2022-11-15T15:06:13;53.53;;;33.65;;
56343;SDS011;42245;42.058;24.700;2022-11-15T15:08:40;53.05;;;31.13;;
56343;SDS011;42245;42.058;24.700;2022-11-15T15:11:21;52.20;;;32.10;;
56343;SDS011;42245;42.058;24.700;2022-11-15T15:13:48;47.13;;;29.67;;
56343;SDS011;42245;42.058;24.700;2022-11-15T15:16:14;53.30;;;31.00;;
56343;SDS011;42245;42.058;24.700;2022-11-15T15:18:39;57.47;;;33.92;;
56343;SDS011;42245;42.058;24.700;2022-11-15T15:21:11;53.15;;;32.40;;
56343;SDS011;42245;42.058;24.700;2022-11-15T15:23:52;54.10;;;31.83;;
56343;SDS011;42245;42.058;24.700;2022-11-15T15:26:21;56.95;;;32.85;;
56343;SDS011;42245;42.058;24.700;2022-11-15T15:28:47;57.20;;;31.77;;
56343;SDS011;42245;42.058;24.700;2022-11-15T15:31:14;52.00;;;31.55;;
56343;SDS011;42245;42.058;24.700;2022-11-15T15:33:39;53.83;;;31.90;;
56343;SDS011;42245;42.058;24.700;2022-11-15T15:36:08;50.67;;;32.03;;
56343;SDS011;42245;42.058;24.700;2022-11-15T15:38:35;57.40;;;33.28;;
56343;SDS011;42245;42.058;24.700;2022-11-15T15:41:01;53.58;;;33.53;;
56343;SDS011;42245;42.058;24.700;2022-11-15T15:43:27;59.58;;;34.55;;
56343;SDS011;42245;42.058;24.700;2022-11-15T15:45:53;57.85;;;35.55;;
56343;SDS011;42245;42.058;24.700;2022-11-15T15:48:18;58.67;;;33.67;;
56343;SDS011;42245;42.058;24.700;2022-11-15T15:50:43;56.50;;;34.08;;
56343;SDS011;42245;42.058;24.700;2022-11-15T15:53:09;56.85;;;33.42;;
56343;SDS011;42245;42.058;24.700;2022-11-15T15:55:36;60.60;;;36.10;;
56343;SDS011;42245;42.058;24.700;2022-11-15T15:58:01;56.75;;;34.35;;
56343;SDS011;42245;42.058;24.700;2022-11-15T16:00:27;63.25;;;34.88;;
56343;SDS011;42245;42.058;24.700;2022-11-15T16:02:53;64.20;;;36.47;;
56343;SDS011;42245;42.058;24.700;2022-11-15T16:05:18;59.55;;;36.13;;
56343;SDS011;42245;42.058;24.700;2022-11-15T16:07:44;61.38;;;35.65;;
56343;SDS011;42245;42.058;24.700;2022-11-15T16:12:45;60.38;;;35.20;;
56343;SDS011;42245;42.058;24.700;2022-11-15T16:15:11;62.90;;;36.45;;
56343;SDS011;42245;42.058;24.700;2022-11-15T16:17:41;60.80;;;35.55;;
56343;SDS011;42245;42.058;24.700;2022-11-15T16:20:15;55.72;;;33.22;;
56343;SDS011;42245;42.058;24.700;2022-11-15T16:22:46;54.95;;;32.90;;
56343;SDS011;42245;42.058;24.700;2022-11-15T16:25:11;55.20;;;31.65;;
56343;SDS011;42245;42.058;24.700;2022-11-15T16:27:36;59.00;;;33.13;;
56343;SDS011;42245;42.058;24.700;2022-11-15T16:30:11;58.03;;;32.47;;
56343;SDS011;42245;42.058;24.700;2022-11-15T16:32:39;55.03;;;32.70;;
56343;SDS011;42245;42.058;24.700;2022-11-15T16:35:04;56.40;;;32.40;;
56343;SDS011;42245;42.058;24.700;2022-11-15T16:37:30;53.80;;;31.60;;
56343;SDS011;42245;42.058;24.700;2022-11-15T16:39:56;54.20;;;32.20;;
56343;SDS011;42245;42.058;24.700;2022-11-15T16:42:21;53.30;;;31.25;;
56343;SDS011;42245;42.058;24.700;2022-11-15T16:44:46;59.47;;;33.50;;
56343;SDS011;42245;42.058;24.700;2022-11-15T16:47:18;58.10;;;32.95;;
56343;SDS011;42245;42.058;24.700;2022-11-15T16:49:44;59.13;;;31.35;;
56343;SDS011;42245;42.058;24.700;2022-11-15T16:52:09;57.30;;;32.95;;
56343;SDS011;42245;42.058;24.700;2022-11-15T16:54:35;59.05;;;32.15;;
56343;SDS011;42245;42.058;24.700;2022-11-15T16:57:00;60.45;;;33.38;;
56343;SDS011;42245;42.058;24.700;2022-11-15T16:59:26;60.13;;;33.92;;
56343;SDS011;42245;42.058;24.700;2022-11-15T17:01:51;59.42;;;33.67;;
56343;SDS011;42245;42.058;24.700;2022-11-15T17:04:17;57.13;;;33.45;;
56343;SDS011;42245;42.058;24.700;2022-11-15T17:06:44;53.70;;;31.70;;
56343;SDS011;42245;42.058;24.700;2022-11-15T17:09:14;60.63;;;34.58;;
56343;SDS011;42245;42.058;24.700;2022-11-15T17:11:42;60.58;;;32.45;;
56343;SDS011;42245;42.058;24.700;2022-11-15T17:14:07;63.92;;;33.65;;
56343;SDS011;42245;42.058;24.700;2022-11-15T17:16:33;61.08;;;33.53;;
56343;SDS011;42245;42.058;24.700;2022-11-15T17:18:59;59.35;;;32.22;;
56343;SDS011;42245;42.058;24.700;2022-11-15T17:21:25;57.60;;;32.15;;
56343;SDS011;42245;42.058;24.700;2022-11-15T17:23:52;56.27;;;32.17;;
56343;SDS011;42245;42.058;24.700;2022-11-15T17:26:18;57.42;;;33.33;;
56343;SDS011;42245;42.058;24.700;2022-11-15T17:28:43;57.10;;;31.75;;
56343;SDS011;42245;42.058;24.700;2022-11-15T17:31:09;55.67;;;31.80;;
56343;SDS011;42245;42.058;24.700;2022-11-15T17:33:36;66.65;;;33.65;;
56343;SDS011;42245;42.058;24.700;2022-11-15T17:36:04;59.17;;;32.92;;
56343;SDS011;42245;42.058;24.700;2022-11-15T17:38:31;59.85;;;33.40;;
56343;SDS011;42245;42.058;24.700;2022-11-15T17:43:26;58.90;;;32.63;;
56343;SDS011;42245;42.058;24.700;2022-11-15T17:45:52;72.63;;;38.00;;
56343;SDS011;42245;42.058;24.700;2022-11-15T17:48:17;58.03;;;33.78;;
56343;SDS011;42245;42.058;24.700;2022-11-15T17:50:43;61.17;;;33.83;;
56343;SDS011;42245;42.058;24.700;2022-11-15T17:53:08;66.55;;;33.75;;
56343;SDS011;42245;42.058;24.700;2022-11-15T17:55:33;65.88;;;32.67;;
56343;SDS011;42245;42.058;24.700;2022-11-15T17:57:59;58.53;;;32.57;;
56343;SDS011;42245;42.058;24.700;2022-11-15T18:00:24;60.23;;;33.07;;
56343;SDS011;42245;42.058;24.700;2022-11-15T18:02:50;60.50;;;34.30;;
56343;SDS011;42245;42.058;24.700;2022-11-15T18:05:15;62.72;;;33.58;;
56343;SDS011;42245;42.058;24.700;2022-11-15T18:07:40;67.03;;;34.67;;
56343;SDS011;42245;42.058;24.700;2022-11-15T18:10:06;61.93;;;33.83;;
56343;SDS011;42245;42.058;24.700;2022-11-15T18:12:32;66.70;;;34.10;;
56343;SDS011;42245;42.058;24.700;2022-11-15T18:14:57;61.33;;;34.33;;
56343;SDS011;42245;42.058;24.700;2022-11-15T18:17:24;64.57;;;33.27;;
56343;SDS011;42245;42.058;24.700;2022-11-15T18:19:49;56.10;;;32.47;;
56343;SDS011;42245;42.058;24.700;2022-11-15T18:22:14;60.03;;;32.53;;
56343;SDS011;42245;42.058;24.700;2022-11-15T18:24:40;67.30;;;35.03;;
56343;SDS011;42245;42.058;24.700;2022-11-15T18:27:07;63.30;;;33.03;;
56343;SDS011;42245;42.058;24.700;2022-11-15T18:29:33;65.97;;;35.83;;
56343;SDS011;42245;42.058;24.700;2022-11-15T18:32:01;63.57;;;34.97;;
56343;SDS011;42245;42.058;24.700;2022-11-15T18:34:30;64.07;;;33.83;;
56343;SDS011;42245;42.058;24.700;2022-11-15T18:36:57;60.47;;;32.93;;
56343;SDS011;42245;42.058;24.700;2022-11-15T18:39:23;58.97;;;32.67;;
56343;SDS011;42245;42.058;24.700;2022-11-15T18:41:49;60.25;;;32.65;;
56343;SDS011;42245;42.058;24.700;2022-11-15T18:44:15;58.73;;;32.57;;
56343;SDS011;42245;42.058;24.700;2022-11-15T18:46:40;62.77;;;33.20;;
56343;SDS011;42245;42.058;24.700;2022-11-15T18:49:08;63.97;;;34.07;;
56343;SDS011;42245;42.058;24.700;2022-11-15T18:51:34;61.23;;;32.30;;
56343;SDS011;42245;42.058;24.700;2022-11-15T18:54:00;60.67;;;32.40;;
56343;SDS011;42245;42.058;24.700;2022-11-15T18:56:26;63.53;;;34.50;;
56343;SDS011;42245;42.058;24.700;2022-11-15T18:58:53;62.20;;;33.43;;
56343;SDS011;42245;42.058;24.700;2022-11-15T19:01:23;62.33;;;31.73;;
56343;SDS011;42245;42.058;24.700;2022-11-15T19:03:50;63.77;;;33.87;;
56343;SDS011;42245;42.058;24.700;2022-11-15T19:06:19;63.20;;;33.83;;
56343;SDS011;42245;42.058;24.700;2022-11-15T19:08:46;65.33;;;34.00;;
56343;SDS011;42245;42.058;24.700;2022-11-15T19:11:18;61.50;;;32.13;;
56343;SDS011;42245;42.058;24.700;2022-11-15T19:13:45;64.77;;;33.47;;
56343;SDS011;42245;42.058;24.700;2022-11-15T19:16:12;63.37;;;33.20;;
56343;SDS011;42245;42.058;24.700;2022-11-15T19:18:38;57.93;;;30.77;;
56343;SDS011;42245;42.058;24.700;2022-11-15T19:21:07;59.43;;;32.37;;
56343;SDS011;42245;42.058;24.700;2022-11-15T19:23:34;62.17;;;32.13;;
56343;SDS011;42245;42.058;24.700;2022-11-15T19:26:00;57.87;;;31.63;;
56343;SDS011;42245;42.058;24.700;2022-11-15T19:28:27;58.77;;;32.30;;
56343;SDS011;42245;42.058;24.700;2022-11-15T19:30:53;59.40;;;32.37;;
56343;SDS011;42245;42.058;24.700;2022-11-15T19:33:31;60.37;;;32.23;;
56343;SDS011;42245;42.058;24.700;2022-11-15T19:36:00;58.00;;;32.87;;
56343;SDS011;42245;42.058;24.700;2022-11-15T19:38:30;66.33;;;32.90;;
56343;SDS011;42245;42.058;24.700;2022-11-15T19:41:03;59.63;;;32.37;;
56343;SDS011;42245;42.058;24.700;2022-11-15T19:43:30;60.67;;;32.53;;
56343;SDS011;42245;42.058;24.700;2022-11-15T19:45:58;68.33;;;32.83;;
56343;SDS011;42245;42.058;24.700;2022-11-15T19:48:24;63.97;;;32.70;;
56343;SDS011;42245;42.058;24.700;2022-11-15T19:50:50;65.00;;;34.30;;
56343;SDS011;42245;42.058;24.700;2022-11-15T19:53:16;61.93;;;31.93;;
56343;SDS011;42245;42.058;24.700;2022-11-15T19:55:51;64.33;;;33.83;;
56343;SDS011;42245;42.058;24.700;2022-11-15T19:58:23;61.00;;;32.93;;
56343;SDS011;42245;42.058;24.700;2022-11-15T20:00:49;68.33;;;33.83;;
56343;SDS011;42245;42.058;24.700;2022-11-15T20:03:15;63.67;;;33.90;;
56343;SDS011;42245;42.058;24.700;2022-11-15T20:05:41;70.30;;;34.80;;
56343;SDS011;42245;42.058;24.700;2022-11-15T20:08:06;65.70;;;33.90;;
56343;SDS011;42245;42.058;24.700;2022-11-15T20:10:32;66.73;;;34.17;;
56343;SDS011;42245;42.058;24.700;2022-11-15T20:12:58;65.07;;;34.23;;
56343;SDS011;42245;42.058;24.700;2022-11-15T20:15:24;63.27;;;33.73;;
